Disclaimer

Please do not use the information listed here in-flight or in-navigation, as they are not provided to us by the airports but are provided by volunteers, so they might be outdated.

Search


Regions


Airport information page

Radio informations:
VILLA TWR - 122.1 MHz
VILLA GND - 121.875 MHz
VILLA APP/DEP - 119.425 MHz

Airport informations:
Latitude: 48° 46' 27.86" N
Longitude: 002° 12' 05.53" E
Elevation: 584 feet - 178 meters
Operating hours: Remarks
Operating agency: Military
Timezone: UTC+1(+2DT) - Last Sunday in March to last Sunday in October
Fuel: Jet A1+, Jet A1 with icing inhibitor.

Runway information:
09/27 - 5948 x 148 feet< - >1813 x 45 meters

Recent METARs:
LFPV 151630Z AUTO 14009KT 5000 -SNRA BR SCT010/// BKN017/// OVC043/// ///TCU M00/M01 Q1014 TEMPO FZRA BKN008
LFPV 151700Z AUTO 14008KT 4700 -FZRA BR BKN007/// OVC015/// ///TCU M00/M01 Q1013 TEMPO BKN008
LFPV 151730Z AUTO 14009KT 5000 -FZRA BR BKN007/// OVC014/// ///TCU M00/M01 Q1012 TEMPO BKN008

Airport on the map: